Airfield :
LOGIN :

Register | Disclaimer

   EN    FR    IT 

 










Legend :    VFR   Marginal VFR   IFR   Intensive IFR   Very Intensive IFR
Visi :
Ceiling :
>= 8 km
>= 3000ft
5 to 8 km
1000 to 3000 ft
1500m to 5 km
500 to 1000 ft
800 to 1500m
200 to 500 ft
< 800m
< 200 ft
Symbols :   Thunderstorms  Fog  Heavy snow  Heavy precipitations  Wind > 20 kt
SIGMETs :     Misc.  Thunderstorms  Icing  Turbulence  Mountain Waves  Volcanic Ashes







- Airport Elevation : 17 ft
- IATA code : GRQ


EHGG - Groningen Eelde

CURRENT METAR :
  • 200855Z AUTO 23008KT 9999 DZ FEW007/// BKN042/// 05/04 Q1016 BECMG BKN013

EXPIRED METARs :
  • 200825Z AUTO 24006KT 9999 DZ FEW027 SCT032 BKN037 05/04 Q1016 TEMPO 7000 RADZ
  • 200755Z AUTO 25008KT 9999 DZ FEW024 BKN037 05/04 Q1016 TEMPO 7000 RADZ
  • 200725Z AUTO 26009KT 220V300 9999 DZ FEW035 BKN041 OVC046 05/04 Q1016 TEMPO 7000 RADZ
  • 200655Z AUTO 24006KT 210V270 9999 FEW041/// BKN047/// 06/05 Q1016 TEMPO 7000 RA

TAF TAF EHGG
Valid from the 20 at 06:00 until the 21 at 12:00 UTC


200517Z 2006/2112 25008KT 9999 BKN025
BECMG 2006/2009 SCT008 BKN012
BECMG 2009/2012 18012KT 6000 -RADZ SCT004 BKN006
TEMPO 2015/2021 4000 RADZ BR BKN004
BECMG 2016/2019 27008KT
PROB40 2018/2112 2000 DZRA BKN002
PROB40
TEMPO 2021/2112 SCT008 BKN018
PROB30 2100/2109 0800 FG -DZ BKN001
No reported NOTAMs for that airfield.



MET'MAP, your aeronautical weather chart ! - Copyright ORBIFLY December 2007 - Disclaimer

ORBIFLY MET'MAP TEAM :

Programming & Development : Alexandra Zaïnal
Concept & Development : Baudouin d'Aumeries
Co-Development & Prog : Marc-Olivier Méhu
Technical & hardware support : Manuel Goepfert

Contact : metmap@orbifly.com




SOURCES & CREDITS :

   NOAA